createdAt,value
2022-11-29T00:01:35.851Z,15.57
2022-11-29T00:04:03.888Z,15.35
2022-11-29T00:06:33.643Z,17.60
2022-11-29T00:09:06.289Z,17.48
2022-11-29T00:11:55.029Z,15.90
2022-11-29T00:14:23.082Z,15.38
2022-11-29T00:16:52.494Z,15.35
2022-11-29T00:19:19.596Z,16.20
2022-11-29T00:21:46.648Z,16.73
2022-11-29T00:24:14.270Z,15.60
2022-11-29T00:26:41.358Z,16.60
2022-11-29T00:29:08.441Z,14.70
2022-11-29T00:31:35.790Z,16.12
2022-11-29T00:34:04.977Z,14.30
2022-11-29T00:36:32.052Z,15.65
2022-11-29T00:38:59.358Z,14.77
2022-11-29T00:41:27.081Z,14.52
2022-11-29T00:43:54.168Z,15.63
2022-11-29T00:46:21.958Z,15.50
2022-11-29T00:48:48.985Z,17.00
2022-11-29T00:51:15.969Z,15.82
2022-11-29T00:53:43.269Z,15.57
2022-11-29T00:56:10.470Z,15.18
2022-11-29T00:58:37.520Z,13.18
2022-11-29T01:01:05.533Z,15.93
2022-11-29T01:03:32.990Z,15.48
2022-11-29T01:06:02.092Z,16.15
2022-11-29T01:08:29.390Z,13.80
2022-11-29T01:11:05.818Z,13.65
2022-11-29T01:13:33.809Z,14.45
2022-11-29T01:16:01.090Z,14.48
2022-11-29T01:18:30.413Z,14.50
2022-11-29T01:21:17.934Z,16.27
2022-11-29T01:23:45.906Z,14.27
2022-11-29T01:26:19.129Z,15.63
2022-11-29T01:28:47.994Z,16.35
2022-11-29T01:31:19.411Z,15.20
2022-11-29T01:33:46.615Z,15.68
2022-11-29T01:36:14.181Z,14.70
2022-11-29T01:38:42.524Z,14.57
2022-11-29T01:41:13.725Z,14.43
2022-11-29T01:44:07.046Z,13.43
2022-11-29T01:46:43.303Z,13.55
2022-11-29T01:49:17.525Z,13.18
2022-11-29T01:51:53.125Z,13.60
2022-11-29T01:54:20.700Z,14.20
2022-11-29T01:56:50.339Z,13.20
2022-11-29T01:59:21.998Z,13.38
2022-11-29T02:01:49.392Z,12.32
2022-11-29T02:04:18.632Z,12.90
2022-11-29T02:06:46.604Z,13.48
2022-11-29T02:09:22.769Z,12.85
2022-11-29T02:11:52.801Z,12.95
2022-11-29T02:14:49.605Z,15.35
2022-11-29T02:17:48.130Z,13.50
2022-11-29T02:20:45.579Z,13.57
2022-11-29T02:23:18.548Z,12.80
2022-11-29T02:26:11.137Z,13.07
2022-11-29T02:29:16.152Z,14.20
2022-11-29T02:32:20.798Z,13.82
2022-11-29T02:35:12.876Z,13.00
2022-11-29T02:37:45.650Z,12.30
2022-11-29T02:41:01.243Z,13.15
2022-11-29T02:43:46.253Z,11.63
2022-11-29T02:46:22.744Z,12.20
2022-11-29T02:49:08.850Z,12.68
2022-11-29T02:51:42.107Z,13.95
2022-11-29T02:54:26.514Z,13.45
2022-11-29T02:59:34.253Z,11.88
2022-11-29T03:02:20.317Z,13.27
2022-11-29T03:04:58.404Z,11.48
2022-11-29T03:07:40.271Z,12.00
2022-11-29T03:10:29.158Z,12.45
2022-11-29T03:12:58.353Z,13.20
2022-11-29T03:15:29.836Z,11.65
2022-11-29T03:18:13.812Z,11.00
2022-11-29T03:21:05.560Z,12.55
2022-11-29T03:23:55.098Z,12.02
2022-11-29T03:26:52.162Z,11.45
2022-11-29T03:29:42.556Z,11.48
2022-11-29T03:32:36.722Z,12.90
2022-11-29T03:35:13.399Z,11.57
2022-11-29T03:38:02.728Z,11.40
2022-11-29T03:40:48.150Z,11.93
2022-11-29T03:43:38.897Z,11.23
2022-11-29T03:46:12.197Z,10.10
2022-11-29T03:48:50.173Z,11.65
2022-11-29T03:51:44.045Z,11.25
2022-11-29T03:54:16.746Z,11.20
2022-11-29T03:56:44.532Z,11.90
2022-11-29T03:59:49.313Z,10.88
2022-11-29T04:02:16.587Z,12.25
2022-11-29T04:05:05.834Z,11.73
2022-11-29T04:08:11.626Z,10.88
2022-11-29T04:10:53.714Z,11.32
2022-11-29T04:13:47.688Z,11.07
2022-11-29T04:16:27.316Z,11.80
2022-11-29T04:19:00.142Z,11.75
2022-11-29T04:22:01.260Z,10.85
2022-11-29T04:24:50.080Z,11.20
2022-11-29T04:27:54.732Z,10.48
2022-11-29T04:30:56.825Z,11.93
2022-11-29T04:33:51.756Z,9.00
2022-11-29T04:36:37.964Z,10.32
2022-11-29T04:39:11.320Z,9.75
2022-11-29T04:42:06.654Z,10.95
2022-11-29T04:44:43.096Z,11.50
2022-11-29T04:47:36.644Z,10.73
2022-11-29T04:50:13.980Z,12.75
2022-11-29T04:52:56.355Z,11.45
2022-11-29T04:55:42.187Z,12.70
2022-11-29T04:58:24.527Z,11.15
2022-11-29T05:01:12.306Z,11.40
2022-11-29T05:03:49.341Z,12.55
2022-11-29T05:06:33.723Z,12.48
2022-11-29T05:09:24.444Z,12.00
2022-11-29T05:12:08.563Z,12.02
2022-11-29T05:15:04.867Z,12.93
2022-11-29T05:17:47.012Z,12.57
2022-11-29T05:20:28.526Z,12.55
2022-11-29T05:23:17.151Z,12.98
2022-11-29T05:25:58.082Z,12.20
2022-11-29T05:28:49.913Z,11.75
2022-11-29T05:31:47.062Z,12.32
2022-11-29T05:34:39.417Z,11.70
2022-11-29T05:37:27.078Z,12.55
2022-11-29T05:40:17.780Z,13.07
2022-11-29T05:43:46.627Z,13.13
2022-11-29T05:46:33.946Z,10.65
2022-11-29T05:49:08.755Z,11.15
2022-11-29T05:51:48.592Z,11.63
2022-11-29T05:54:28.047Z,12.40
2022-11-29T05:57:10.562Z,13.13
2022-11-29T05:59:39.009Z,11.65
2022-11-29T06:02:27.634Z,11.57
2022-11-29T06:05:03.669Z,11.38
2022-11-29T06:07:41.004Z,13.98
2022-11-29T06:10:13.157Z,12.43
2022-11-29T06:12:43.599Z,13.35
2022-11-29T06:15:32.514Z,13.65
2022-11-29T06:18:08.471Z,12.77
2022-11-29T06:20:57.281Z,11.73
2022-11-29T06:24:02.731Z,11.00
2022-11-29T06:27:11.736Z,10.57
2022-11-29T06:30:02.381Z,11.35
2022-11-29T06:32:32.951Z,11.82
2022-11-29T06:35:21.616Z,12.05
2022-11-29T06:37:52.334Z,11.02
2022-11-29T06:40:19.410Z,11.18
2022-11-29T06:42:46.468Z,11.68
2022-11-29T06:45:15.003Z,11.95
2022-11-29T06:47:52.970Z,10.55
2022-11-29T06:50:44.344Z,11.10
2022-11-29T06:53:28.516Z,11.55
2022-11-29T06:55:55.779Z,11.85
2022-11-29T06:58:36.367Z,12.77
2022-11-29T07:01:20.115Z,13.15
2022-11-29T07:04:24.471Z,11.88
2022-11-29T07:06:52.091Z,12.60
2022-11-29T07:09:22.831Z,12.48
2022-11-29T07:11:50.174Z,13.77
2022-11-29T07:14:17.831Z,12.90
2022-11-29T07:16:57.367Z,12.82
2022-11-29T07:19:33.987Z,12.15
2022-11-29T07:22:43.414Z,12.73
2022-11-29T07:25:35.070Z,13.07
2022-11-29T07:28:32.064Z,12.85
2022-11-29T07:31:05.114Z,13.48
2022-11-29T07:33:51.230Z,14.05
2022-11-29T07:36:27.959Z,12.48
2022-11-29T07:39:16.246Z,12.63
2022-11-29T07:41:55.740Z,13.05
2022-11-29T07:44:51.922Z,13.10
2022-11-29T07:47:19.224Z,12.15
2022-11-29T07:49:46.310Z,15.63
2022-11-29T07:52:16.194Z,14.70
2022-11-29T07:54:44.302Z,14.00
2022-11-29T07:57:11.482Z,13.48
2022-11-29T07:59:38.510Z,13.93
2022-11-29T08:02:11.498Z,13.48
2022-11-29T08:04:46.238Z,13.60
2022-11-29T08:07:13.377Z,14.90
2022-11-29T08:09:40.659Z,14.60
2022-11-29T08:12:07.970Z,13.82
2022-11-29T08:14:35.003Z,14.52
2022-11-29T08:17:02.390Z,15.18
2022-11-29T08:19:29.648Z,14.60
2022-11-29T08:21:56.696Z,14.23
2022-11-29T08:24:24.018Z,14.02
2022-11-29T08:26:51.108Z,14.27
2022-11-29T08:29:19.115Z,15.02
2022-11-29T08:31:46.597Z,16.67
2022-11-29T08:34:13.696Z,15.18
2022-11-29T08:36:40.700Z,14.20
2022-11-29T08:39:09.673Z,14.68
2022-11-29T08:41:37.190Z,15.10
2022-11-29T08:44:07.814Z,13.93
2022-11-29T08:46:53.979Z,14.07
2022-11-29T08:49:20.976Z,13.82
2022-11-29T08:51:48.360Z,14.65
2022-11-29T08:54:15.324Z,14.07
2022-11-29T08:59:29.548Z,14.75
2022-11-29T09:01:56.658Z,14.48
2022-11-29T09:04:23.710Z,13.98
2022-11-29T09:06:51.138Z,13.68
2022-11-29T09:09:18.164Z,14.32
2022-11-29T09:11:49.204Z,16.30
2022-11-29T09:14:17.765Z,15.82
2022-11-29T09:16:44.961Z,13.73
2022-11-29T09:19:14.407Z,15.32
2022-11-29T09:21:41.865Z,13.13
2022-11-29T09:24:10.198Z,13.82
2022-11-29T09:26:40.644Z,16.45
2022-11-29T09:29:08.180Z,15.00
2022-11-29T09:31:35.762Z,14.20
2022-11-29T09:34:02.858Z,16.00
2022-11-29T09:36:30.862Z,17.75
2022-11-29T09:38:59.371Z,17.73
2022-11-29T09:41:32.807Z,17.77
2022-11-29T09:44:18.656Z,16.17
2022-11-29T09:47:08.506Z,16.02
2022-11-29T09:50:13.439Z,16.77
2022-11-29T09:52:47.585Z,14.95
2022-11-29T09:55:33.077Z,15.43
2022-11-29T09:58:03.831Z,14.48
2022-11-29T10:00:35.619Z,13.73
2022-11-29T10:03:31.752Z,15.57
2022-11-29T10:06:08.492Z,13.93
2022-11-29T10:09:04.641Z,15.65
2022-11-29T10:12:10.469Z,15.32
2022-11-29T10:15:02.727Z,16.55
2022-11-29T10:17:34.083Z,15.35
2022-11-29T10:20:27.434Z,16.17
2022-11-29T10:23:06.866Z,15.68
2022-11-29T10:25:42.161Z,16.95
2022-11-29T10:28:14.616Z,14.48
2022-11-29T10:30:42.978Z,16.05
2022-11-29T10:33:21.099Z,15.98
2022-11-29T10:35:51.306Z,17.80
2022-11-29T10:38:33.740Z,15.75
2022-11-29T10:41:11.952Z,16.92
2022-11-29T10:43:39.223Z,17.48
2022-11-29T10:46:15.733Z,17.30
2022-11-29T10:48:42.882Z,16.92
2022-11-29T10:51:18.137Z,17.52
2022-11-29T10:53:46.681Z,17.42
2022-11-29T10:56:31.109Z,17.35
2022-11-29T10:59:05.197Z,15.80
2022-11-29T11:01:37.004Z,16.92
2022-11-29T11:04:07.374Z,16.60
2022-11-29T11:06:51.493Z,16.17
2022-11-29T11:09:21.221Z,17.60
2022-11-29T11:12:14.591Z,16.83
2022-11-29T11:14:43.246Z,15.93
2022-11-29T11:17:30.080Z,18.83
2022-11-29T11:20:04.523Z,18.17
2022-11-29T11:22:33.880Z,15.07
2022-11-29T11:25:06.287Z,15.82
2022-11-29T11:27:41.802Z,16.40
2022-11-29T11:30:22.436Z,15.45
2022-11-29T11:33:20.130Z,16.30
2022-11-29T11:36:05.781Z,15.52
2022-11-29T11:38:38.512Z,15.88
2022-11-29T11:41:05.836Z,16.30
2022-11-29T11:43:34.618Z,15.88
2022-11-29T11:46:02.104Z,12.70
2022-11-29T11:48:29.695Z,14.45
2022-11-29T11:50:59.433Z,15.85
2022-11-29T11:53:36.507Z,14.55
2022-11-29T11:56:08.818Z,13.55
2022-11-29T11:58:53.257Z,15.43
2022-11-29T12:01:44.422Z,16.33
2022-11-29T12:04:20.398Z,14.35
2022-11-29T12:06:47.417Z,15.13
2022-11-29T12:09:30.911Z,17.08
2022-11-29T12:12:03.759Z,15.38
2022-11-29T12:14:52.905Z,15.02
2022-11-29T12:17:34.908Z,16.95
2022-11-29T12:20:13.687Z,14.00
2022-11-29T12:22:55.678Z,14.10
2022-11-29T12:25:29.685Z,15.68
2022-11-29T12:27:56.919Z,14.60
2022-11-29T12:30:24.354Z,15.52
2022-11-29T12:32:51.261Z,14.93
2022-11-29T12:35:32.697Z,15.35
2022-11-29T12:38:18.497Z,16.95
2022-11-29T12:41:16.757Z,16.33
2022-11-29T12:43:49.770Z,16.12
2022-11-29T12:46:36.208Z,15.00
2022-11-29T12:49:21.972Z,15.80
2022-11-29T12:52:02.388Z,15.25
2022-11-29T12:54:35.634Z,15.48
2022-11-29T12:57:17.778Z,16.55
2022-11-29T13:00:09.646Z,14.80
2022-11-29T13:03:06.825Z,16.67
2022-11-29T13:06:03.690Z,16.33
2022-11-29T13:08:53.900Z,16.60
2022-11-29T13:11:29.164Z,18.42
2022-11-29T13:14:40.847Z,16.55
2022-11-29T13:17:02.307Z,18.35
2022-11-29T13:19:39.198Z,16.62
2022-11-29T13:22:06.810Z,15.98
2022-11-29T13:24:42.752Z,16.85
2022-11-29T13:27:34.868Z,22.83
2022-11-29T13:30:02.591Z,18.87
2022-11-29T13:32:34.221Z,18.08
2022-11-29T13:35:32.142Z,18.55
2022-11-29T13:38:03.262Z,18.12
2022-11-29T13:40:44.885Z,19.45
2022-11-29T13:43:23.388Z,19.08
2022-11-29T13:46:25.640Z,20.00
2022-11-29T13:48:54.631Z,18.62
2022-11-29T13:51:30.352Z,18.45
2022-11-29T13:54:01.728Z,17.62
2022-11-29T13:56:47.645Z,17.73
2022-11-29T13:59:32.493Z,18.42
2022-11-29T14:01:59.844Z,19.77
2022-11-29T14:04:32.368Z,20.92
2022-11-29T14:07:06.361Z,19.73
2022-11-29T14:12:39.581Z,17.83
2022-11-29T14:15:25.043Z,17.58
2022-11-29T14:18:01.587Z,19.67
2022-11-29T14:20:44.102Z,20.95
2022-11-29T14:23:16.063Z,18.52
2022-11-29T14:25:58.660Z,19.37
2022-11-29T14:28:43.873Z,18.60
2022-11-29T14:31:11.247Z,19.67
2022-11-29T14:33:47.078Z,18.25
2022-11-29T14:36:24.271Z,18.95
2022-11-29T14:38:58.840Z,18.05
2022-11-29T14:41:33.798Z,17.27
2022-11-29T14:44:30.412Z,19.00
2022-11-29T14:47:24.729Z,19.35
2022-11-29T14:49:54.112Z,18.25
2022-11-29T14:52:28.247Z,19.58
2022-11-29T14:55:00.983Z,20.05
2022-11-29T14:57:48.402Z,19.67
2022-11-29T15:00:29.270Z,19.23
2022-11-29T15:03:16.986Z,19.65
2022-11-29T15:05:51.734Z,17.50
2022-11-29T15:08:41.555Z,20.58
2022-11-29T15:11:08.513Z,17.05
2022-11-29T15:13:38.875Z,19.77
2022-11-29T15:16:31.795Z,20.70
2022-11-29T15:19:16.507Z,19.70
2022-11-29T15:21:55.003Z,18.12
2022-11-29T15:24:26.767Z,21.08
2022-11-29T15:26:59.895Z,21.93
2022-11-29T15:29:28.830Z,20.35
2022-11-29T15:31:58.973Z,22.13
2022-11-29T15:34:36.890Z,18.98
2022-11-29T15:37:04.432Z,21.85
2022-11-29T15:39:36.841Z,20.20
2022-11-29T15:42:11.433Z,18.40
2022-11-29T15:44:45.741Z,19.17
2022-11-29T15:47:25.163Z,20.55
2022-11-29T15:49:54.167Z,20.50
2022-11-29T15:52:31.780Z,20.55
2022-11-29T15:55:05.836Z,19.87
2022-11-29T16:00:11.449Z,18.67
2022-11-29T16:02:46.314Z,20.55
2022-11-29T16:05:26.328Z,20.55
2022-11-29T16:07:58.382Z,20.52
2022-11-29T16:10:35.956Z,22.23
2022-11-29T16:13:43.105Z,19.70
2022-11-29T16:16:20.473Z,19.85
2022-11-29T16:18:49.580Z,20.52
2022-11-29T16:21:26.032Z,20.58
2022-11-29T16:23:54.092Z,20.33
2022-11-29T16:26:30.273Z,21.92
2022-11-29T16:28:58.060Z,21.58
2022-11-29T16:31:36.608Z,23.83
2022-11-29T16:34:28.748Z,22.10
2022-11-29T16:37:31.919Z,23.77
2022-11-29T16:40:01.497Z,23.02
2022-11-29T16:42:30.864Z,21.62
2022-11-29T16:45:27.171Z,20.92
2022-11-29T16:47:59.705Z,20.75
2022-11-29T16:50:31.816Z,19.85
2022-11-29T16:53:34.057Z,21.42
2022-11-29T16:56:01.172Z,21.23
2022-11-29T16:58:28.618Z,21.83
2022-11-29T17:00:55.708Z,19.87
2022-11-29T17:03:22.738Z,21.30
2022-11-29T17:05:50.358Z,21.87
2022-11-29T17:08:17.450Z,23.42
2022-11-29T17:10:44.437Z,21.70
2022-11-29T17:13:11.859Z,22.20
2022-11-29T17:15:39.039Z,20.17
2022-11-29T17:18:06.061Z,20.08
2022-11-29T17:20:33.894Z,22.77
2022-11-29T17:23:00.907Z,22.40
2022-11-29T17:25:27.933Z,21.00
2022-11-29T17:27:55.881Z,21.33
2022-11-29T17:30:22.931Z,20.85
2022-11-29T17:32:49.939Z,21.62
2022-11-29T17:35:17.233Z,22.50
2022-11-29T17:37:44.253Z,20.83
2022-11-29T17:40:13.512Z,21.55
2022-11-29T17:42:41.497Z,22.80
2022-11-29T17:45:09.211Z,22.52
2022-11-29T17:47:36.192Z,24.15
2022-11-29T17:50:03.839Z,22.77
2022-11-29T17:52:30.830Z,24.77
2022-11-29T17:54:57.897Z,22.65
2022-11-29T17:57:25.215Z,23.27
2022-11-29T17:59:52.246Z,23.05
2022-11-29T18:02:19.347Z,21.77
2022-11-29T18:04:46.660Z,21.27
2022-11-29T18:07:15.826Z,22.15
2022-11-29T18:09:44.198Z,23.90
2022-11-29T18:12:11.781Z,23.25
2022-11-29T18:14:39.065Z,20.12
2022-11-29T18:17:06.096Z,22.15
2022-11-29T18:19:33.762Z,21.92
2022-11-29T18:22:02.649Z,21.33
2022-11-29T18:24:30.658Z,20.92
2022-11-29T18:26:57.969Z,19.27
2022-11-29T18:29:25.147Z,17.05
2022-11-29T18:31:52.303Z,21.90
2022-11-29T18:34:19.658Z,20.35
2022-11-29T18:36:48.499Z,20.95
2022-11-29T18:39:17.546Z,20.85
2022-11-29T18:41:47.573Z,20.67
2022-11-29T18:44:17.089Z,22.83
2022-11-29T18:46:45.608Z,21.35
2022-11-29T18:49:15.459Z,21.95
2022-11-29T18:51:45.388Z,21.67
2022-11-29T18:54:14.960Z,21.00
2022-11-29T18:56:43.367Z,21.70
2022-11-29T18:59:12.063Z,21.58
2022-11-29T19:01:42.426Z,21.55
2022-11-29T19:04:12.790Z,21.87
2022-11-29T19:06:41.072Z,24.25
2022-11-29T19:09:12.905Z,22.30
2022-11-29T19:11:40.788Z,23.08
2022-11-29T19:14:13.302Z,21.30
2022-11-29T19:16:43.435Z,22.70
2022-11-29T19:19:11.127Z,22.60
2022-11-29T19:21:39.919Z,20.92
2022-11-29T19:24:13.928Z,21.40
2022-11-29T19:26:44.602Z,21.08
2022-11-29T19:29:15.525Z,22.70
2022-11-29T19:31:43.046Z,23.80
2022-11-29T19:34:10.493Z,21.98
2022-11-29T19:36:43.130Z,22.87
2022-11-29T19:39:16.254Z,22.73
2022-11-29T19:41:46.016Z,20.92
2022-11-29T19:44:13.553Z,21.17
2022-11-29T19:46:45.923Z,21.60
2022-11-29T19:49:13.542Z,22.50
2022-11-29T19:51:40.565Z,22.73
2022-11-29T19:54:09.670Z,22.45
2022-11-29T19:56:38.097Z,20.20
2022-11-29T19:59:06.582Z,23.25
2022-11-29T20:01:40.723Z,22.50
2022-11-29T20:04:11.700Z,22.23
2022-11-29T20:06:38.783Z,21.48
2022-11-29T20:09:06.485Z,20.23
2022-11-29T20:11:36.782Z,20.25
2022-11-29T20:14:05.201Z,21.80
2022-11-29T20:16:33.582Z,21.92
2022-11-29T20:19:01.716Z,21.65
2022-11-29T20:21:31.406Z,21.15
2022-11-29T20:24:04.240Z,20.15
2022-11-29T20:26:33.799Z,19.80
2022-11-29T20:29:02.207Z,21.92
2022-11-29T20:31:29.732Z,19.08
2022-11-29T20:33:57.556Z,20.77
2022-11-29T20:36:36.424Z,20.65
2022-11-29T20:39:28.951Z,20.35
2022-11-29T20:41:58.673Z,19.90
2022-11-29T20:44:50.760Z,20.00
2022-11-29T20:47:20.937Z,21.30
2022-11-29T20:49:48.752Z,18.50
2022-11-29T20:52:33.781Z,19.55
2022-11-29T20:55:01.111Z,19.35
2022-11-29T20:57:28.625Z,20.73
2022-11-29T20:59:55.659Z,18.90
2022-11-29T21:02:23.525Z,18.42
2022-11-29T21:04:51.491Z,18.37
2022-11-29T21:07:18.663Z,18.17
2022-11-29T21:09:46.135Z,16.20
2022-11-29T21:12:13.667Z,16.73
2022-11-29T21:14:40.923Z,16.52
2022-11-29T21:17:09.003Z,17.73
2022-11-29T21:19:36.552Z,16.27
2022-11-29T21:22:03.708Z,17.25
2022-11-29T21:24:46.524Z,15.55
2022-11-29T21:27:17.584Z,14.60
2022-11-29T21:29:45.330Z,16.52
2022-11-29T21:32:24.492Z,16.15
2022-11-29T21:34:52.219Z,14.85
2022-11-29T21:37:22.230Z,15.07
2022-11-29T21:39:51.429Z,15.15
2022-11-29T21:42:19.107Z,14.87
2022-11-29T21:44:46.911Z,14.38
2022-11-29T21:47:14.548Z,14.85
2022-11-29T21:49:41.812Z,14.87
2022-11-29T21:52:09.194Z,13.82
2022-11-29T21:54:36.270Z,14.13
2022-11-29T21:57:04.698Z,13.95
2022-11-29T21:59:31.744Z,13.25
2022-11-29T22:01:58.879Z,14.45
2022-11-29T22:04:26.415Z,14.63
2022-11-29T22:06:53.563Z,13.85
2022-11-29T22:09:20.622Z,13.65
2022-11-29T22:11:48.009Z,13.95
2022-11-29T22:14:19.349Z,14.30
2022-11-29T22:16:52.604Z,13.88
2022-11-29T22:19:28.920Z,12.63
2022-11-29T22:22:01.231Z,12.23
2022-11-29T22:24:31.307Z,13.73
2022-11-29T22:26:58.378Z,12.77
2022-11-29T22:29:25.962Z,13.73
2022-11-29T22:31:55.593Z,12.63
2022-11-29T22:34:25.224Z,13.68
2022-11-29T22:36:52.595Z,13.98
2022-11-29T22:39:19.932Z,12.68
2022-11-29T22:41:53.564Z,12.40
2022-11-29T22:44:22.934Z,14.90
2022-11-29T22:46:50.393Z,14.32
2022-11-29T22:49:17.533Z,13.18
2022-11-29T22:51:44.918Z,12.50
2022-11-29T22:54:15.291Z,14.23
2022-11-29T22:56:43.601Z,11.88
2022-11-29T22:59:11.398Z,13.93
2022-11-29T23:01:40.343Z,12.30
2022-11-29T23:04:11.434Z,13.00
2022-11-29T23:06:45.823Z,12.55
2022-11-29T23:09:21.062Z,11.52
2022-11-29T23:11:53.831Z,13.05
2022-11-29T23:14:22.114Z,11.63
2022-11-29T23:16:49.708Z,12.27
2022-11-29T23:19:17.290Z,11.48
2022-11-29T23:21:45.842Z,12.27
2022-11-29T23:24:15.090Z,11.10
2022-11-29T23:26:45.951Z,11.57
2022-11-29T23:29:15.765Z,11.52
2022-11-29T23:31:43.093Z,11.10
2022-11-29T23:34:10.525Z,10.88
2022-11-29T23:36:39.735Z,11.07
2022-11-29T23:39:07.174Z,11.18
2022-11-29T23:41:35.765Z,10.93
2022-11-29T23:44:04.903Z,12.23
2022-11-29T23:46:32.506Z,11.10
2022-11-29T23:48:59.499Z,11.60
2022-11-29T23:51:26.908Z,11.18
2022-11-29T23:53:54.404Z,11.77
2022-11-29T23:56:22.405Z,11.88
2022-11-29T23:58:49.827Z,10.13
